Klipper Stream — PHBO — position and weather

sailwx.info

Track history (hours):
 
Tides and Currents Weather Stations Pressure Air Temp Water Temp Dewpoint Dewpoint Depression Visibility Wind Speed Wind Dir Waves Ship Positions

Klipper Stream

Last reported at 2017-Nov-17 06:35 UTC. Time now 2017-Nov-19 06:35 UTC.
Position N 20°06' W 071°30'.

Length 150 m; draft 7.9 m.

Type: Ship. MMSI: 245398000.

Date/timePositionNaut miles runAvg speedWind from/ knotsBaromVisibWave heightAir tempDewpointWater temp
2017-Nov-17 06:35N 20°06' W 071°30'117.3
2017-Nov-17 06:30N 20°06' W 071°28'917.7
2017-Nov-17 06:00N 20°06' W 071°19'918.3
2017-Nov-17 05:31N 20°06' W 071°09'53916.5
2017-Nov-15 20:46N 17°02' W 062°14'518.0
2017-Nov-15 20:30N 17°04' W 062°09'918.0
2017-Nov-15 20:00N 17°07' W 062°01'714.6
2017-Nov-15 19:31N 17°08' W 061°53'2 3.2
2017-Nov-15 19:00N 17°08' W 061°51'0 0.0
2017-Nov-15 18:28N 17°08' W 061°51'0 0.0
2017-Nov-15 17:58N 17°08' W 061°51'0 0.0
2017-Nov-15 17:28N 17°08' W 061°51'0 0.0
2017-Nov-15 16:58N 17°08' W 061°51'0 0.0
2017-Nov-15 16:28N 17°08' W 061°51'0 0.0
2017-Nov-15 15:58N 17°08' W 061°51'0 0.0
2017-Nov-15 15:28N 17°08' W 061°51'0 0.0
2017-Nov-15 14:58N 17°08' W 061°51'0 0.0
2017-Nov-15 14:28N 17°08' W 061°51'0 0.0
2017-Nov-15 13:58N 17°08' W 061°51'0 0.0
2017-Nov-15 13:28N 17°08' W 061°51'0 0.0
2017-Nov-15 12:58N 17°08' W 061°51'0 0.0
2017-Nov-15 12:28N 17°08' W 061°51'0 0.0
2017-Nov-15 11:58N 17°08' W 061°51'0 0.0
2017-Nov-15 11:28N 17°08' W 061°51'0 0.0
2017-Nov-15 10:58N 17°08' W 061°51'0 0.2
2017-Nov-15 10:30N 17°07' W 061°51'3 5.1
2017-Nov-15 10:00N 17°08' W 061°54'5 9.9
2017-Nov-15 09:31N 17°08' W 061°59'714.9
2017-Nov-15 09:01N 17°05' W 062°06'916.8
2017-Nov-15 08:30N 17°02' W 062°15'917.5
2017-Nov-15 08:00N 16°59' W 062°23'917.4
2017-Nov-15 07:30N 16°56' W 062°32'3 0.4
2017-Nov-14 23:19N 16°54' W 062°34'820.0
2017-Nov-14 22:54N 16°47' W 062°30'819.6
2017-Nov-14 22:30N 16°40' W 062°26'1019.7
2017-Nov-14 22:00N 16°31' W 062°21'1019.9
2017-Nov-14 21:30N 16°23' W 062°16'1019.9
2017-Nov-14 21:00N 16°14' W 062°11'6120.2
2017-Nov-14 17:59N 15°21' W 061°41'4519.9
2017-Nov-14 15:45N 14°42' W 061°18'520.5
2017-Nov-14 15:29N 14°37' W 061°16'917.9
2017-Nov-14 15:00N 14°35' W 061°07'4 7.2
2017-Nov-14 14:30N 14°35' W 061°03'0 0.0
2017-Nov-14 14:00N 14°36' W 061°03'0 0.0
2017-Nov-14 13:30N 14°36' W 061°03'0 0.0
2017-Nov-14 13:00N 14°36' W 061°03'0 0.0
2017-Nov-14 12:30N 14°36' W 061°03'0 0.0
2017-Nov-14 12:00N 14°36' W 061°03'0 0.0
2017-Nov-14 11:30N 14°36' W 061°03'0 0.0
2017-Nov-14 11:00N 14°36' W 061°03'0 0.1
2017-Nov-14 10:31N 14°35' W 061°03'1 2.9
2017-Nov-14 10:01N 14°35' W 061°05'611.3
2017-Nov-14 09:30N 14°33' W 061°10'714.4
2017-Nov-14 09:00N 14°26' W 061°11'1019.9
2017-Nov-14 08:30N 14°16' W 061°07'1019.3
2017-Nov-14 08:00N 14°07' W 061°04'  
2017-Nov-11 00:24N 14°22' W 060°27'812.3
2017-Nov-10 23:45N 14°29' W 060°31'412.9
2017-Nov-10 23:26N 14°33' W 060°34'614.6
2017-Nov-10 23:00N 14°38' W 060°37'714.5
2017-Nov-10 22:30N 14°44' W 060°41'714.7
2017-Nov-10 22:00N 14°50' W 060°45'9013.6
2017-Nov-10 15:23N 16°09' W 061°31'3 8.6
2017-Nov-10 15:00N 16°11' W 061°33'2 4.5
2017-Nov-10 14:29N 16°14' W 061°33'0 0.0
2017-Nov-10 13:57N 16°14' W 061°33'0 0.0
2017-Nov-10 13:30N 16°14' W 061°33'0 0.0
2017-Nov-10 13:00N 16°14' W 061°33'0 0.0
2017-Nov-10 12:30N 16°14' W 061°33'0 0.0
2017-Nov-10 12:00N 16°14' W 061°33'0 0.0
2017-Nov-10 11:30N 16°14' W 061°33'0 0.0
2017-Nov-10 10:51N 16°14' W 061°33'0 0.0
2017-Nov-10 10:24N 16°14' W 061°33'0 0.7
2017-Nov-10 10:00N 16°14' W 061°32'4 7.5
2017-Nov-10 09:30N 16°10' W 061°33'4 8.7
2017-Nov-10 09:00N 16°07' W 061°30'4 9.1
2017-Nov-10 08:30N 16°03' W 061°29'2312.2
2017-Nov-10 06:36N 15°40' W 061°33'112.0
2017-Nov-10 06:28N 15°38' W 061°33'912.3
2017-Nov-10 05:45N 15°29' W 061°33'512.3
2017-Nov-10 05:20N 15°24' W 061°33'1 0.8
2017-Nov-10 04:09N 15°23' W 061°33'1 4.7
2017-Nov-10 04:00N 15°23' W 061°33'4313.5
2017-Nov-10 00:49N 14°42' W 061°19'413.4
2017-Nov-10 00:30N 14°38' W 061°17'712.5
2017-Nov-09 23:59N 14°36' W 061°10'612.8
2017-Nov-09 23:30N 14°35' W 061°04'1 2.2
2017-Nov-09 23:00N 14°35' W 061°03'0 0.0
2017-Nov-09 22:30N 14°35' W 061°03'0 0.0
2017-Nov-09 21:58N 14°35' W 061°03'0 0.0
2017-Nov-09 21:28N 14°35' W 061°03'0 0.0
2017-Nov-09 20:58N 14°35' W 061°03'0 0.0
2017-Nov-09 20:28N 14°35' W 061°03'0 0.0
2017-Nov-09 19:58N 14°35' W 061°03'0 0.0
2017-Nov-09 19:28N 14°35' W 061°03'0 0.0
2017-Nov-09 19:00N 14°35' W 061°03'0 0.0
2017-Nov-09 18:13N 14°35' W 061°03'0 0.0
2017-Nov-09 18:00N 14°35' W 061°03'0 0.0
2017-Nov-09 17:30N 14°35' W 061°03'0 0.7
2017-Nov-09 17:00N 14°35' W 061°03'2 4.4
2017-Nov-09 16:30N 14°35' W 061°06'3 5.9
2017-Nov-09 16:00N 14°36' W 061°09'611.9
2017-Nov-09 15:28N 14°36' W 061°15'14917.5
2017-Nov-09 07:00N 16°30' W 059°36'13318.9 090 / 151011.310.8 27.0
2017-Nov-09 00:00N 18°00' W 057°54'11118.6 050 / 121013.410.8 27.0
2017-Nov-08 18:00N 19°18' W 056°30'23019.1 070 / 111012.610.8 29.0
2017-Nov-08 06:00N 21°54' W 053°30'12621.0 1014.010.8 24.5
2017-Nov-08 00:00N 23°18' W 051°48'10918.2 1016.310.8 26.0
2017-Nov-07 18:00N 24°30' W 050°18'   1014.710.8 28.0
Track history (hours):
 
Tides and Currents Weather Stations Pressure Air Temp Water Temp Dewpoint Dewpoint Depression Visibility Wind Speed Wind Dir Waves Ship Positions

Klipper Stream

Last reported at 2017-Nov-17 06:35 UTC. Time now 2017-Nov-19 06:35 UTC.
Position N 20°06' W 071°30'.

Length 150 m; draft 7.9 m.

Type: Ship. MMSI: 245398000.

Date/timePositionNaut miles runAvg speedWind from/ knotsBaromVisibWave heightAir tempDewpointWater temp
2017-Nov-17 06:35N 20°06' W 071°30'117.3
2017-Nov-17 06:30N 20°06' W 071°28'917.7
2017-Nov-17 06:00N 20°06' W 071°19'918.3
2017-Nov-17 05:31N 20°06' W 071°09'53916.5
2017-Nov-15 20:46N 17°02' W 062°14'518.0
2017-Nov-15 20:30N 17°04' W 062°09'918.0
2017-Nov-15 20:00N 17°07' W 062°01'714.6
2017-Nov-15 19:31N 17°08' W 061°53'2 3.2
2017-Nov-15 19:00N 17°08' W 061°51'0 0.0
2017-Nov-15 18:28N 17°08' W 061°51'0 0.0
2017-Nov-15 17:58N 17°08' W 061°51'0 0.0
2017-Nov-15 17:28N 17°08' W 061°51'0 0.0
2017-Nov-15 16:58N 17°08' W 061°51'0 0.0
2017-Nov-15 16:28N 17°08' W 061°51'0 0.0
2017-Nov-15 15:58N 17°08' W 061°51'0 0.0
2017-Nov-15 15:28N 17°08' W 061°51'0 0.0
2017-Nov-15 14:58N 17°08' W 061°51'0 0.0
2017-Nov-15 14:28N 17°08' W 061°51'0 0.0
2017-Nov-15 13:58N 17°08' W 061°51'0 0.0
2017-Nov-15 13:28N 17°08' W 061°51'0 0.0
2017-Nov-15 12:58N 17°08' W 061°51'0 0.0
2017-Nov-15 12:28N 17°08' W 061°51'0 0.0
2017-Nov-15 11:58N 17°08' W 061°51'0 0.0
2017-Nov-15 11:28N 17°08' W 061°51'0 0.0
2017-Nov-15 10:58N 17°08' W 061°51'0 0.2
2017-Nov-15 10:30N 17°07' W 061°51'3 5.1
2017-Nov-15 10:00N 17°08' W 061°54'5 9.9
2017-Nov-15 09:31N 17°08' W 061°59'714.9
2017-Nov-15 09:01N 17°05' W 062°06'916.8
2017-Nov-15 08:30N 17°02' W 062°15'917.5
2017-Nov-15 08:00N 16°59' W 062°23'917.4
2017-Nov-15 07:30N 16°56' W 062°32'3 0.4
2017-Nov-14 23:19N 16°54' W 062°34'820.0
2017-Nov-14 22:54N 16°47' W 062°30'819.6
2017-Nov-14 22:30N 16°40' W 062°26'1019.7
2017-Nov-14 22:00N 16°31' W 062°21'1019.9
2017-Nov-14 21:30N 16°23' W 062°16'1019.9
2017-Nov-14 21:00N 16°14' W 062°11'6120.2
2017-Nov-14 17:59N 15°21' W 061°41'4519.9
2017-Nov-14 15:45N 14°42' W 061°18'520.5
2017-Nov-14 15:29N 14°37' W 061°16'917.9
2017-Nov-14 15:00N 14°35' W 061°07'4 7.2
2017-Nov-14 14:30N 14°35' W 061°03'0 0.0
2017-Nov-14 14:00N 14°36' W 061°03'0 0.0
2017-Nov-14 13:30N 14°36' W 061°03'0 0.0
2017-Nov-14 13:00N 14°36' W 061°03'0 0.0
2017-Nov-14 12:30N 14°36' W 061°03'0 0.0
2017-Nov-14 12:00N 14°36' W 061°03'0 0.0
2017-Nov-14 11:30N 14°36' W 061°03'0 0.0
2017-Nov-14 11:00N 14°36' W 061°03'0 0.1
2017-Nov-14 10:31N 14°35' W 061°03'1 2.9
2017-Nov-14 10:01N 14°35' W 061°05'611.3
2017-Nov-14 09:30N 14°33' W 061°10'714.4
2017-Nov-14 09:00N 14°26' W 061°11'1019.9
2017-Nov-14 08:30N 14°16' W 061°07'1019.3
2017-Nov-14 08:00N 14°07' W 061°04'  
2017-Nov-11 00:24N 14°22' W 060°27'812.3
2017-Nov-10 23:45N 14°29' W 060°31'412.9
2017-Nov-10 23:26N 14°33' W 060°34'614.6
2017-Nov-10 23:00N 14°38' W 060°37'714.5
2017-Nov-10 22:30N 14°44' W 060°41'714.7
2017-Nov-10 22:00N 14°50' W 060°45'9013.6
2017-Nov-10 15:23N 16°09' W 061°31'3 8.6
2017-Nov-10 15:00N 16°11' W 061°33'2 4.5
2017-Nov-10 14:29N 16°14' W 061°33'0 0.0
2017-Nov-10 13:57N 16°14' W 061°33'0 0.0
2017-Nov-10 13:30N 16°14' W 061°33'0 0.0
2017-Nov-10 13:00N 16°14' W 061°33'0 0.0
2017-Nov-10 12:30N 16°14' W 061°33'0 0.0
2017-Nov-10 12:00N 16°14' W 061°33'0 0.0
2017-Nov-10 11:30N 16°14' W 061°33'0 0.0
2017-Nov-10 10:51N 16°14' W 061°33'0 0.0
2017-Nov-10 10:24N 16°14' W 061°33'0 0.7
2017-Nov-10 10:00N 16°14' W 061°32'4 7.5
2017-Nov-10 09:30N 16°10' W 061°33'4 8.7
2017-Nov-10 09:00N 16°07' W 061°30'4 9.1
2017-Nov-10 08:30N 16°03' W 061°29'2312.2
2017-Nov-10 06:36N 15°40' W 061°33'112.0
2017-Nov-10 06:28N 15°38' W 061°33'912.3
2017-Nov-10 05:45N 15°29' W 061°33'512.3
2017-Nov-10 05:20N 15°24' W 061°33'1 0.8
2017-Nov-10 04:09N 15°23' W 061°33'1 4.7
2017-Nov-10 04:00N 15°23' W 061°33'4313.5
2017-Nov-10 00:49N 14°42' W 061°19'413.4
2017-Nov-10 00:30N 14°38' W 061°17'712.5
2017-Nov-09 23:59N 14°36' W 061°10'612.8
2017-Nov-09 23:30N 14°35' W 061°04'1 2.2
2017-Nov-09 23:00N 14°35' W 061°03'0 0.0
2017-Nov-09 22:30N 14°35' W 061°03'0 0.0
2017-Nov-09 21:58N 14°35' W 061°03'0 0.0
2017-Nov-09 21:28N 14°35' W 061°03'0 0.0
2017-Nov-09 20:58N 14°35' W 061°03'0 0.0
2017-Nov-09 20:28N 14°35' W 061°03'0 0.0
2017-Nov-09 19:58N 14°35' W 061°03'0 0.0
2017-Nov-09 19:28N 14°35' W 061°03'0 0.0
2017-Nov-09 19:00N 14°35' W 061°03'0 0.0
2017-Nov-09 18:13N 14°35' W 061°03'0 0.0
2017-Nov-09 18:00N 14°35' W 061°03'0 0.0
2017-Nov-09 17:30N 14°35' W 061°03'0 0.7
2017-Nov-09 17:00N 14°35' W 061°03'2 4.4
2017-Nov-09 16:30N 14°35' W 061°06'3 5.9
2017-Nov-09 16:00N 14°36' W 061°09'611.9
2017-Nov-09 15:28N 14°36' W 061°15'14917.5
2017-Nov-09 07:00N 16°30' W 059°36'13318.9 090 / 151011.310.8 27.0
2017-Nov-09 00:00N 18°00' W 057°54'11118.6 050 / 121013.410.8 27.0
2017-Nov-08 18:00N 19°18' W 056°30'23019.1 070 / 111012.610.8 29.0
2017-Nov-08 06:00N 21°54' W 053°30'12621.0 1014.010.8 24.5
2017-Nov-08 00:00N 23°18' W 051°48'10918.2 1016.310.8 26.0
2017-Nov-07 18:00N 24°30' W 050°18'   1014.710.8 28.0

Dump ship's entire track history